Time;durP1;ratioP1;P1;durP2;ratioP2;P2;SDS_P1;SDS_P2;PMS_P1;PMS_P2;Temp;Humidity;BMP_temperature;BMP_pressure;BME280_temperature;BME280_humidity;BME280_pressure;Samples;Min_cycle;Max_cycle;Signal;HPM_P1;HPM_P2
2021/12/18 00:01:17;;;;;;;;;;;3.00;99.90;;;;;;4963732;28;19994;-83
2021/12/18 00:03:43;;;;;;;;;;;3.00;99.90;;;;;;4937416;28;19957;-83
2021/12/18 00:06:09;;;;;;;;;;;3.00;99.90;;;;;;4964341;28;19952;-81
2021/12/18 00:08:35;;;;;;;;;;;3.00;99.90;;;;;;4952313;28;20665;-82
2021/12/18 00:11:00;;;;;;;;;;;3.00;99.90;;;;;;4983154;28;19949;-83
2021/12/18 00:13:26;;;;;;;;;;;3.00;99.90;;;;;;4969186;28;20296;-81
2021/12/18 00:15:52;;;;;;;;;;;3.00;99.90;;;;;;4971565;28;19968;-82
2021/12/18 00:18:18;;;;;;;;;;;3.00;99.90;;;;;;4970599;28;19914;-80
2021/12/18 00:20:43;;;;;;;;;;;3.10;99.90;;;;;;4982649;28;19933;-82
2021/12/18 00:23:09;;;;;;;;;;;3.10;99.90;;;;;;4946728;28;19918;-81
2021/12/18 00:25:35;;;;;;;;;;;3.10;99.90;;;;;;4972882;28;19922;-81
2021/12/18 00:28:00;;;;;;;;;;;3.10;99.90;;;;;;4938312;28;19934;-80
2021/12/18 00:30:26;;;;;;;;;;;3.10;99.90;;;;;;4953440;28;19914;-80
2021/12/18 00:32:52;;;;;;;;;;;3.10;99.90;;;;;;4962407;28;19925;-81
2021/12/18 00:35:18;;;;;;;;;;;3.10;99.90;;;;;;4986452;28;19914;-81
2021/12/18 00:37:44;;;;;;;;;;;3.10;99.90;;;;;;4971447;28;19969;-81
2021/12/18 00:40:17;;;;;;;;;;;3.10;99.90;;;;;;4980145;28;19945;-81
2021/12/18 00:42:59;;;;;;;;;;;3.10;99.90;;;;;;4969728;28;19926;-81
2021/12/18 00:45:25;;;;;;;;;;;3.10;99.90;;;;;;4987832;28;19953;-79
2021/12/18 00:47:50;;;;;;;;;;;3.10;99.90;;;;;;4967053;28;20066;-80
2021/12/18 00:50:21;;;;;;;;;;;3.10;99.90;;;;;;4970075;28;19929;-81
2021/12/18 00:52:47;;;;;;;;;;;3.10;99.90;;;;;;4967283;28;19921;-81
2021/12/18 00:55:14;;;;;;;;;;;3.10;99.90;;;;;;4968623;28;20431;-80
2021/12/18 00:57:39;;;;;;;;;;;3.10;99.90;;;;;;4966357;28;19924;-80
2021/12/18 01:00:07;;;;;;;;;;;3.10;99.90;;;;;;4967812;28;19926;-80
2021/12/18 01:02:33;;;;;;;;;;;3.10;99.90;;;;;;4988896;28;19918;-81
2021/12/18 01:04:58;;;;;;;;;;;3.10;99.90;;;;;;4968680;28;19921;-81
2021/12/18 01:07:24;;;;;;;;;;;3.10;99.90;;;;;;4961644;28;20300;-81
2021/12/18 01:10:14;;;;;;;;;;;3.10;99.90;;;;;;4967401;28;19918;-80
2021/12/18 01:12:43;;;;;;;;;;;3.10;99.90;;;;;;4934999;29;19945;-80
2021/12/18 01:23:03;;;;;;;;;;;3.10;99.90;;;;;;4989456;28;20320;-80
2021/12/18 01:25:29;;;;;;;;;;;3.10;99.90;;;;;;4985914;28;19977;-81
2021/12/18 01:27:54;;;;;;;;;;;3.10;99.90;;;;;;4983731;28;19977;-81
2021/12/18 01:30:20;;;;;;;;;;;3.10;99.90;;;;;;4953878;28;19925;-81
2021/12/18 01:32:46;;;;;;;;;;;3.10;99.90;;;;;;4982173;28;20524;-80
2021/12/18 01:35:11;;;;;;;;;;;3.20;99.90;;;;;;4966514;28;19976;-81
2021/12/18 01:37:39;;;;;;;;;;;3.10;99.90;;;;;;4972585;28;19918;-80
2021/12/18 01:40:05;;;;;;;;;;;3.10;99.90;;;;;;4966225;28;19998;-81
2021/12/18 01:45:09;;;;;;;;;;;3.20;99.90;;;;;;4974634;28;20285;-81
2021/12/18 01:53:20;;;;;;;;;;;3.10;99.90;;;;;;4952414;28;20005;-80
2021/12/18 01:55:48;;;;;;;;;;;3.10;99.90;;;;;;4977725;28;19942;-81
2021/12/18 01:58:19;;;;;;;;;;;3.10;99.90;;;;;;4967454;28;19961;-77
2021/12/18 02:00:45;;;;;;;;;;;3.10;99.90;;;;;;4966824;28;19941;-80
2021/12/18 02:03:11;;;;;;;;;;;3.10;99.90;;;;;;4953822;28;19922;-80
2021/12/18 02:05:40;;;;;;;;;;;3.10;99.90;;;;;;4988088;28;19969;-80
2021/12/18 02:08:06;;;;;;;;;;;3.10;99.90;;;;;;4988222;28;20017;-80
2021/12/18 02:10:43;;;;;;;;;;;3.10;99.90;;;;;;4956357;28;19957;-81
2021/12/18 02:13:25;;;;;;;;;;;3.10;99.90;;;;;;4971082;28;19961;-80
2021/12/18 02:21:22;;;;;;;;;;;3.10;99.90;;;;;;4973924;28;19914;-81
2021/12/18 02:23:49;;;;;;;;;;;3.10;99.90;;;;;;4973707;28;19915;-80
2021/12/18 02:26:14;;;;;;;;;;;3.10;99.90;;;;;;4973038;28;19922;-81
2021/12/18 02:28:43;;;;;;;;;;;3.10;99.90;;;;;;4987520;28;20345;-80
2021/12/18 02:31:09;;;;;;;;;;;3.10;99.90;;;;;;4972784;28;19914;-80
2021/12/18 02:33:35;;;;;;;;;;;3.10;99.90;;;;;;4972449;28;20005;-80
2021/12/18 02:36:04;;;;;;;;;;;3.10;99.90;;;;;;4955997;28;19918;-81
2021/12/18 02:41:40;;;;;;;;;;;3.10;99.90;;;;;;4970931;28;19914;-80
2021/12/18 02:44:10;;;;;;;;;;;3.20;99.90;;;;;;4958399;28;19926;-81
2021/12/18 02:46:36;;;;;;;;;;;3.20;99.90;;;;;;4971708;28;19925;-81
2021/12/18 02:49:09;;;;;;;;;;;3.20;99.90;;;;;;4977932;28;20562;-81
2021/12/18 02:51:35;;;;;;;;;;;3.20;99.90;;;;;;4964691;28;19930;-80
2021/12/18 02:54:01;;;;;;;;;;;3.20;99.90;;;;;;4986980;28;19914;-80
2021/12/18 02:56:26;;;;;;;;;;;3.20;99.90;;;;;;4955598;28;19929;-81
2021/12/18 02:58:53;;;;;;;;;;;3.10;99.90;;;;;;4967970;28;19964;-81
2021/12/18 03:01:21;;;;;;;;;;;3.20;99.90;;;;;;4988228;28;19918;-81
2021/12/18 03:03:48;;;;;;;;;;;3.20;99.90;;;;;;4973231;28;20511;-81
2021/12/18 03:06:35;;;;;;;;;;;3.20;99.90;;;;;;4972717;28;21785;-80
2021/12/18 03:22:49;;;;;;;;;;;3.20;99.90;;;;;;4975493;28;19919;-80
2021/12/18 03:25:23;;;;;;;;;;;3.20;99.90;;;;;;4992156;28;19925;-81
2021/12/18 03:27:49;;;;;;;;;;;3.20;99.90;;;;;;4941028;28;20335;-80
2021/12/18 03:30:15;;;;;;;;;;;3.20;99.90;;;;;;4971263;28;19914;-79
2021/12/18 03:32:41;;;;;;;;;;;3.20;99.90;;;;;;4939229;28;19970;-79
2021/12/18 03:35:08;;;;;;;;;;;3.20;99.90;;;;;;4979781;28;19997;-80
2021/12/18 03:37:34;;;;;;;;;;;3.20;99.90;;;;;;4969378;28;19922;-80
2021/12/18 03:40:01;;;;;;;;;;;3.20;99.90;;;;;;4981197;28;19923;-80
2021/12/18 03:42:27;;;;;;;;;;;3.20;99.90;;;;;;4948012;29;19918;-80
2021/12/18 03:44:52;;;;;;;;;;;3.10;99.90;;;;;;4984055;28;20491;-80
2021/12/18 03:47:18;;;;;;;;;;;3.10;99.90;;;;;;4980279;28;19949;-81
2021/12/18 03:49:43;;;;;;;;;;;3.10;99.90;;;;;;4974922;28;19918;-80
2021/12/18 03:52:09;;;;;;;;;;;3.10;99.90;;;;;;4970863;28;19918;-80
2021/12/18 03:54:35;;;;;;;;;;;3.10;99.90;;;;;;4971006;28;19914;-80
2021/12/18 03:57:01;;;;;;;;;;;3.10;99.90;;;;;;4978813;28;19914;-80
2021/12/18 03:59:27;;;;;;;;;;;3.10;99.90;;;;;;4970758;28;20468;-80
2021/12/18 04:01:53;;;;;;;;;;;3.10;99.90;;;;;;4938713;28;20009;-79
2021/12/18 04:04:19;;;;;;;;;;;3.10;99.90;;;;;;4987144;28;20401;-81
2021/12/18 04:06:44;;;;;;;;;;;3.10;99.90;;;;;;4970333;28;19922;-80
2021/12/18 04:09:13;;;;;;;;;;;3.20;99.90;;;;;;4964010;28;19925;-81
2021/12/18 04:11:39;;;;;;;;;;;3.10;99.90;;;;;;4972109;28;19969;-80
2021/12/18 04:14:06;;;;;;;;;;;3.10;99.90;;;;;;4964934;28;20486;-79
2021/12/18 04:16:32;;;;;;;;;;;3.20;99.90;;;;;;4986488;28;19918;-80
2021/12/18 04:18:57;;;;;;;;;;;3.10;99.90;;;;;;4963683;28;20005;-80
2021/12/18 04:21:23;;;;;;;;;;;3.10;99.90;;;;;;4967572;28;20444;-81
2021/12/18 04:23:48;;;;;;;;;;;3.10;99.90;;;;;;4968602;28;19980;-81
2021/12/18 04:26:14;;;;;;;;;;;3.10;99.90;;;;;;4982709;28;19923;-80
2021/12/18 04:28:40;;;;;;;;;;;3.10;99.90;;;;;;4963108;28;20429;-81
2021/12/18 04:31:05;;;;;;;;;;;3.10;99.90;;;;;;4969303;28;19969;-79
2021/12/18 04:33:31;;;;;;;;;;;3.10;99.90;;;;;;4970261;28;19965;-81
2021/12/18 04:35:57;;;;;;;;;;;3.10;99.90;;;;;;4984527;28;19914;-80
2021/12/18 04:38:22;;;;;;;;;;;3.10;99.90;;;;;;4970458;28;19914;-78
2021/12/18 04:40:49;;;;;;;;;;;3.10;99.90;;;;;;4927600;28;19919;-80
2021/12/18 04:43:15;;;;;;;;;;;3.10;99.90;;;;;;4981785;28;19973;-81
2021/12/18 04:45:41;;;;;;;;;;;3.20;99.90;;;;;;4994817;28;19918;-81
2021/12/18 04:48:06;;;;;;;;;;;3.20;99.90;;;;;;4963047;28;19918;-81
2021/12/18 04:50:32;;;;;;;;;;;3.10;99.90;;;;;;4937853;29;19918;-81
2021/12/18 04:52:58;;;;;;;;;;;3.10;99.90;;;;;;4987707;28;19914;-80
2021/12/18 04:55:23;;;;;;;;;;;3.10;99.90;;;;;;4957914;28;19918;-80
2021/12/18 04:57:51;;;;;;;;;;;3.10;99.90;;;;;;4940384;28;19918;-80
2021/12/18 05:00:20;;;;;;;;;;;3.10;99.90;;;;;;4989413;28;19948;-79
2021/12/18 05:02:47;;;;;;;;;;;3.10;99.90;;;;;;4977487;28;19918;-80
2021/12/18 05:05:14;;;;;;;;;;;3.10;99.90;;;;;;4975225;28;19914;-80
2021/12/18 05:07:40;;;;;;;;;;;3.10;99.90;;;;;;4989492;28;19918;-80
2021/12/18 05:10:06;;;;;;;;;;;3.10;99.90;;;;;;4936927;28;20480;-79
2021/12/18 05:12:32;;;;;;;;;;;3.10;99.90;;;;;;4933873;28;19918;-80
2021/12/18 05:14:58;;;;;;;;;;;3.10;99.90;;;;;;4981176;28;20219;-80
2021/12/18 05:17:23;;;;;;;;;;;3.10;99.90;;;;;;4938257;29;20358;-80
2021/12/18 05:19:49;;;;;;;;;;;3.10;99.90;;;;;;4985884;28;19914;-79
2021/12/18 05:22:15;;;;;;;;;;;3.10;99.90;;;;;;4969706;28;19949;-81
2021/12/18 05:24:40;;;;;;;;;;;3.10;99.90;;;;;;4941489;28;19924;-80
2021/12/18 05:27:06;;;;;;;;;;;3.10;99.90;;;;;;4960965;28;19921;-81
2021/12/18 05:29:31;;;;;;;;;;;3.20;99.90;;;;;;4963647;28;19918;-80
2021/12/18 05:31:57;;;;;;;;;;;3.10;99.90;;;;;;4975442;28;19970;-81
2021/12/18 05:34:25;;;;;;;;;;;3.10;99.90;;;;;;4963697;28;19918;-80
2021/12/18 05:39:22;;;;;;;;;;;3.10;99.90;;;;;;4972051;28;20407;-81
2021/12/18 05:41:50;;;;;;;;;;;3.10;99.90;;;;;;4970585;28;19951;-80
2021/12/18 05:44:17;;;;;;;;;;;3.10;99.90;;;;;;4938345;29;20389;-78
2021/12/18 05:46:43;;;;;;;;;;;3.10;99.90;;;;;;4982224;28;20017;-80
2021/12/18 05:49:09;;;;;;;;;;;3.10;99.90;;;;;;4981802;28;19960;-80
2021/12/18 05:51:35;;;;;;;;;;;3.10;99.90;;;;;;4972954;28;19954;-79
2021/12/18 05:54:00;;;;;;;;;;;3.10;99.90;;;;;;4971199;28;19990;-80
2021/12/18 05:56:26;;;;;;;;;;;3.10;99.90;;;;;;4968419;28;20426;-79
2021/12/18 05:58:52;;;;;;;;;;;3.10;99.90;;;;;;4969474;28;20013;-79
2021/12/18 06:01:19;;;;;;;;;;;3.10;99.90;;;;;;4922132;28;19941;-80
2021/12/18 06:03:44;;;;;;;;;;;3.10;99.90;;;;;;4985632;28;19921;-79
2021/12/18 06:06:10;;;;;;;;;;;3.10;99.90;;;;;;4988688;28;19918;-81
2021/12/18 06:08:38;;;;;;;;;;;3.10;99.90;;;;;;4955981;28;19925;-81
2021/12/18 06:11:17;;;;;;;;;;;3.10;99.90;;;;;;4988363;28;20517;-81
2021/12/18 06:13:50;;;;;;;;;;;3.10;99.90;;;;;;4970154;28;19925;-80
2021/12/18 06:16:16;;;;;;;;;;;3.10;99.90;;;;;;4940260;28;19922;-81
2021/12/18 06:18:44;;;;;;;;;;;3.10;99.90;;;;;;4971743;28;20380;-78
2021/12/18 06:21:12;;;;;;;;;;;3.10;99.90;;;;;;4976957;28;19922;-81
2021/12/18 06:23:38;;;;;;;;;;;3.10;99.90;;;;;;4973724;28;19914;-80
2021/12/18 06:26:04;;;;;;;;;;;3.10;99.90;;;;;;4939970;28;19941;-80
2021/12/18 06:28:30;;;;;;;;;;;3.10;99.90;;;;;;4970097;28;20008;-80
2021/12/18 06:30:55;;;;;;;;;;;3.10;99.90;;;;;;4973452;28;20288;-80
2021/12/18 06:33:21;;;;;;;;;;;3.10;99.90;;;;;;4937141;29;19925;-81
2021/12/18 06:35:47;;;;;;;;;;;3.10;99.90;;;;;;4983405;28;20013;-80
2021/12/18 06:38:12;;;;;;;;;;;3.10;99.90;;;;;;4978208;28;19933;-80
2021/12/18 06:40:38;;;;;;;;;;;3.10;99.90;;;;;;4978279;28;19925;-81
2021/12/18 06:43:04;;;;;;;;;;;3.20;99.90;;;;;;4980231;28;19922;-80
2021/12/18 06:45:29;;;;;;;;;;;3.10;99.90;;;;;;4966627;28;19914;-81
2021/12/18 06:47:55;;;;;;;;;;;3.10;99.90;;;;;;4949852;28;19926;-80
2021/12/18 06:50:21;;;;;;;;;;;3.20;99.90;;;;;;4956291;28;20292;-80
2021/12/18 06:52:46;;;;;;;;;;;3.10;99.90;;;;;;4972914;28;19946;-80
2021/12/18 06:55:13;;;;;;;;;;;3.10;99.90;;;;;;4940626;28;19919;-80
2021/12/18 06:57:38;;;;;;;;;;;3.10;99.90;;;;;;4987533;28;19922;-80
2021/12/18 07:00:08;;;;;;;;;;;3.20;99.90;;;;;;4988633;28;20432;-81
2021/12/18 07:02:34;;;;;;;;;;;3.10;99.90;;;;;;4975122;28;19918;-80
2021/12/18 07:04:59;;;;;;;;;;;3.10;99.90;;;;;;4963731;28;19922;-80
2021/12/18 07:07:25;;;;;;;;;;;3.10;99.90;;;;;;4977303;28;19918;-81
2021/12/18 07:09:51;;;;;;;;;;;3.10;99.90;;;;;;4939179;28;19924;-80
2021/12/18 07:12:16;;;;;;;;;;;3.10;99.90;;;;;;4983294;28;20065;-81
2021/12/18 07:14:42;;;;;;;;;;;3.10;99.90;;;;;;4971996;28;19957;-81
2021/12/18 07:17:07;;;;;;;;;;;3.10;99.90;;;;;;4965947;28;19925;-80
2021/12/18 07:19:33;;;;;;;;;;;3.10;99.90;;;;;;4986571;28;19914;-81
2021/12/18 07:21:59;;;;;;;;;;;3.10;99.90;;;;;;4994553;28;20021;-81
2021/12/18 07:24:24;;;;;;;;;;;3.10;99.90;;;;;;4959621;28;19914;-80
2021/12/18 07:26:50;;;;;;;;;;;3.10;99.90;;;;;;4972905;28;19930;-80
2021/12/18 07:29:15;;;;;;;;;;;3.20;99.90;;;;;;4944007;28;19914;-80
2021/12/18 07:31:41;;;;;;;;;;;3.20;99.90;;;;;;4985807;28;19986;-80
2021/12/18 07:34:07;;;;;;;;;;;3.20;99.90;;;;;;4950723;28;20441;-80
2021/12/18 07:36:32;;;;;;;;;;;3.20;99.90;;;;;;4942665;28;19969;-78
2021/12/18 07:38:58;;;;;;;;;;;3.20;99.90;;;;;;4935750;28;20376;-81
2021/12/18 07:41:24;;;;;;;;;;;3.20;99.90;;;;;;4989292;28;19929;-80
2021/12/18 07:43:49;;;;;;;;;;;3.20;99.90;;;;;;4980601;28;20012;-81
2021/12/18 07:46:15;;;;;;;;;;;3.10;99.90;;;;;;4985872;28;19922;-80
2021/12/18 07:48:41;;;;;;;;;;;3.10;99.90;;;;;;4986697;28;20380;-81
2021/12/18 07:51:06;;;;;;;;;;;3.10;99.90;;;;;;4972640;28;20389;-80
2021/12/18 07:53:32;;;;;;;;;;;3.20;99.90;;;;;;4938019;28;19961;-81
2021/12/18 07:55:58;;;;;;;;;;;3.10;99.90;;;;;;4983525;28;20821;-81
2021/12/18 07:58:24;;;;;;;;;;;3.20;99.90;;;;;;4971305;28;19918;-81
2021/12/18 08:00:50;;;;;;;;;;;3.20;99.90;;;;;;4945160;28;20005;-80
2021/12/18 08:03:16;;;;;;;;;;;3.20;99.90;;;;;;4986769;28;20009;-81
2021/12/18 08:05:42;;;;;;;;;;;3.20;99.90;;;;;;4964205;28;19921;-81
2021/12/18 08:08:07;;;;;;;;;;;3.20;99.90;;;;;;4982745;28;20296;-80
2021/12/18 08:10:33;;;;;;;;;;;3.20;99.90;;;;;;4954326;28;19922;-80
2021/12/18 08:12:59;;;;;;;;;;;3.20;99.90;;;;;;4989417;28;20458;-79
2021/12/18 08:15:24;;;;;;;;;;;3.20;99.90;;;;;;4965166;28;19918;-80
2021/12/18 08:17:50;;;;;;;;;;;3.20;99.90;;;;;;4949347;28;20289;-80
2021/12/18 08:20:15;;;;;;;;;;;3.20;99.90;;;;;;4970944;28;19915;-80
2021/12/18 08:22:41;;;;;;;;;;;3.20;99.90;;;;;;4971206;28;19962;-80
2021/12/18 08:25:07;;;;;;;;;;;3.20;99.90;;;;;;4972036;28;19926;-81
2021/12/18 08:27:33;;;;;;;;;;;3.20;99.90;;;;;;4966653;28;20028;-80
2021/12/18 08:29:58;;;;;;;;;;;3.20;99.90;;;;;;4956885;28;20001;-79
2021/12/18 08:32:24;;;;;;;;;;;3.20;99.90;;;;;;4938884;28;19941;-80
2021/12/18 08:34:49;;;;;;;;;;;3.20;99.90;;;;;;4972408;28;19925;-80
2021/12/18 08:37:15;;;;;;;;;;;3.30;99.90;;;;;;4937074;28;19922;-80
2021/12/18 08:39:41;;;;;;;;;;;3.30;99.90;;;;;;4988726;28;20395;-80
2021/12/18 08:42:06;;;;;;;;;;;3.30;99.90;;;;;;4938788;28;19918;-80
2021/12/18 08:44:33;;;;;;;;;;;3.30;99.90;;;;;;4965774;28;19917;-80
2021/12/18 08:46:59;;;;;;;;;;;3.30;99.90;;;;;;4967872;28;20205;-81
2021/12/18 08:49:25;;;;;;;;;;;3.30;99.90;;;;;;4953158;28;20468;-81
2021/12/18 08:51:51;;;;;;;;;;;3.40;99.90;;;;;;4965885;28;20452;-81
2021/12/18 08:54:16;;;;;;;;;;;3.40;99.90;;;;;;4971100;28;19914;-80
2021/12/18 08:56:42;;;;;;;;;;;3.40;99.90;;;;;;4967996;28;19914;-80
2021/12/18 08:59:08;;;;;;;;;;;3.40;99.90;;;;;;4972054;28;19944;-81
2021/12/18 09:01:33;;;;;;;;;;;3.40;99.90;;;;;;4954322;28;19968;-79
2021/12/18 09:03:59;;;;;;;;;;;3.40;99.90;;;;;;4971041;28;19914;-81
2021/12/18 09:06:25;;;;;;;;;;;3.40;99.90;;;;;;4964712;28;20356;-81
2021/12/18 09:08:51;;;;;;;;;;;3.50;99.90;;;;;;4948521;28;19918;-80
2021/12/18 09:11:17;;;;;;;;;;;3.50;99.90;;;;;;4979820;28;19914;-81
2021/12/18 09:13:43;;;;;;;;;;;3.50;99.90;;;;;;4970678;28;20004;-81
2021/12/18 09:16:08;;;;;;;;;;;3.50;99.90;;;;;;4951548;28;19919;-80
2021/12/18 09:18:34;;;;;;;;;;;3.60;99.90;;;;;;4968342;28;19926;-80
2021/12/18 09:21:00;;;;;;;;;;;3.60;99.90;;;;;;4971178;28;20340;-81
2021/12/18 09:23:25;;;;;;;;;;;3.60;99.90;;;;;;4968651;28;20341;-81
2021/12/18 09:25:51;;;;;;;;;;;3.60;99.90;;;;;;4967014;28;20411;-81
2021/12/18 09:28:17;;;;;;;;;;;3.60;99.90;;;;;;4970927;28;19922;-80
2021/12/18 09:30:42;;;;;;;;;;;3.60;99.90;;;;;;4940033;28;19919;-81
2021/12/18 09:33:13;;;;;;;;;;;3.60;99.90;;;;;;4980762;28;19934;-80
2021/12/18 09:35:39;;;;;;;;;;;3.60;99.90;;;;;;4972231;28;19918;-79
2021/12/18 09:38:05;;;;;;;;;;;3.60;99.90;;;;;;4973773;28;19918;-80
2021/12/18 09:40:30;;;;;;;;;;;3.60;99.90;;;;;;4972003;28;19919;-80
2021/12/18 09:42:56;;;;;;;;;;;3.60;99.90;;;;;;4971277;28;19973;-80
2021/12/18 09:45:22;;;;;;;;;;;3.70;99.90;;;;;;4970770;28;20367;-80
2021/12/18 09:47:48;;;;;;;;;;;3.70;99.90;;;;;;4951729;28;19922;-80
2021/12/18 09:50:14;;;;;;;;;;;3.70;99.90;;;;;;4981868;28;19926;-80
2021/12/18 09:52:40;;;;;;;;;;;3.70;99.90;;;;;;4941710;28;19914;-80
2021/12/18 09:55:06;;;;;;;;;;;3.70;99.90;;;;;;4980835;28;20403;-80
2021/12/18 09:57:33;;;;;;;;;;;3.70;99.90;;;;;;4966006;28;19925;-79
2021/12/18 09:59:58;;;;;;;;;;;3.70;99.90;;;;;;4972034;28;19957;-80
2021/12/18 10:02:24;;;;;;;;;;;3.70;99.90;;;;;;4974651;28;20008;-79
2021/12/18 10:04:50;;;;;;;;;;;3.70;99.90;;;;;;4940297;28;19928;-80
2021/12/18 10:07:21;;;;;;;;;;;3.70;99.90;;;;;;4972361;28;19922;-81
2021/12/18 10:09:47;;;;;;;;;;;3.70;99.90;;;;;;4972175;28;20360;-80
2021/12/18 10:12:22;;;;;;;;;;;3.70;99.90;;;;;;4989311;28;19918;-81
2021/12/18 10:15:01;;;;;;;;;;;3.70;99.90;;;;;;4989480;28;20336;-79
2021/12/18 10:17:28;;;;;;;;;;;3.70;99.90;;;;;;4930695;28;19918;-81
2021/12/18 10:20:14;;;;;;;;;;;3.70;99.90;;;;;;4991698;28;20013;-78
2021/12/18 10:22:44;;;;;;;;;;;3.70;99.90;;;;;;4983475;28;20069;-81
2021/12/18 10:25:10;;;;;;;;;;;3.70;99.90;;;;;;4974485;28;19929;-80
2021/12/18 10:27:42;;;;;;;;;;;3.70;99.90;;;;;;4971602;28;19937;-80
2021/12/18 10:30:20;;;;;;;;;;;3.70;99.90;;;;;;4955724;28;19914;-81
2021/12/18 10:33:03;;;;;;;;;;;3.70;99.90;;;;;;4971972;28;20049;-80
2021/12/18 10:35:55;;;;;;;;;;;3.70;99.90;;;;;;4949923;28;19925;-80
2021/12/18 10:38:45;;;;;;;;;;;3.70;99.90;;;;;;4967610;28;19914;-80
2021/12/18 10:41:20;;;;;;;;;;;3.70;99.90;;;;;;4971911;28;19957;-81
2021/12/18 10:43:54;;;;;;;;;;;3.70;99.90;;;;;;4982022;28;19914;-80
2021/12/18 10:46:20;;;;;;;;;;;3.70;99.90;;;;;;4982472;28;19941;-80
2021/12/18 10:48:55;;;;;;;;;;;3.70;99.90;;;;;;4970537;28;19922;-80
2021/12/18 10:51:22;;;;;;;;;;;3.80;99.90;;;;;;4966282;28;20013;-79
2021/12/18 10:53:52;;;;;;;;;;;3.80;99.90;;;;;;4986559;28;19921;-78
2021/12/18 10:56:30;;;;;;;;;;;3.80;99.90;;;;;;4981687;28;19914;-77
2021/12/18 10:58:55;;;;;;;;;;;3.80;99.90;;;;;;4961669;28;19921;-78
2021/12/18 11:01:21;;;;;;;;;;;3.70;99.90;;;;;;4953123;28;19973;-81
2021/12/18 11:03:48;;;;;;;;;;;3.70;99.90;;;;;;4975787;28;19965;-79
2021/12/18 11:06:20;;;;;;;;;;;3.60;99.90;;;;;;4987370;28;19922;-80
2021/12/18 11:09:00;;;;;;;;;;;3.60;99.90;;;;;;4973965;28;19962;-80
2021/12/18 11:14:06;;;;;;;;;;;3.70;99.90;;;;;;4985126;28;19914;-81
2021/12/18 11:16:38;;;;;;;;;;;3.70;99.90;;;;;;4934692;28;19946;-82
2021/12/18 11:19:05;;;;;;;;;;;3.70;99.90;;;;;;4943693;28;19926;-81
2021/12/18 11:21:32;;;;;;;;;;;3.70;99.90;;;;;;4974806;28;19918;-83
2021/12/18 11:24:04;;;;;;;;;;;3.70;99.90;;;;;;4973608;28;20604;-81
2021/12/18 11:26:33;;;;;;;;;;;3.70;99.90;;;;;;4973373;28;19926;-81
2021/12/18 11:29:00;;;;;;;;;;;3.70;99.90;;;;;;4953372;28;20328;-81
2021/12/18 11:31:26;;;;;;;;;;;3.60;99.90;;;;;;4973507;28;20005;-81
2021/12/18 11:33:51;;;;;;;;;;;3.60;99.90;;;;;;4971856;28;19914;-81
2021/12/18 11:36:18;;;;;;;;;;;3.60;99.90;;;;;;4957391;28;20041;-81
2021/12/18 11:38:44;;;;;;;;;;;3.60;99.90;;;;;;4970254;28;19972;-81
2021/12/18 11:41:14;;;;;;;;;;;3.60;99.90;;;;;;4970981;28;19957;-81
2021/12/18 11:43:42;;;;;;;;;;;3.60;99.90;;;;;;4973516;28;19914;-82
2021/12/18 11:46:27;;;;;;;;;;;3.60;99.90;;;;;;4967411;28;19923;-82
2021/12/18 11:49:00;;;;;;;;;;;3.60;99.90;;;;;;4979338;28;19958;-81
2021/12/18 11:51:27;;;;;;;;;;;3.60;99.90;;;;;;4969241;28;19949;-80
2021/12/18 11:53:52;;;;;;;;;;;3.70;99.90;;;;;;4968471;28;19941;-80
2021/12/18 11:56:18;;;;;;;;;;;3.70;99.90;;;;;;4979872;28;19919;-80
2021/12/18 11:58:45;;;;;;;;;;;3.70;99.90;;;;;;4976779;28;19984;-80
2021/12/18 12:01:10;;;;;;;;;;;3.70;99.90;;;;;;4949149;28;19922;-80
2021/12/18 12:03:38;;;;;;;;;;;3.60;99.90;;;;;;4987861;28;19914;-80
2021/12/18 12:06:27;;;;;;;;;;;3.60;99.90;;;;;;4944337;28;19977;-80
2021/12/18 12:09:14;;;;;;;;;;;3.60;99.90;;;;;;4961553;28;20328;-80
2021/12/18 12:11:59;;;;;;;;;;;3.60;99.90;;;;;;4990382;28;19921;-80
2021/12/18 12:14:26;;;;;;;;;;;3.60;99.90;;;;;;4984754;28;19914;-80
2021/12/18 12:16:52;;;;;;;;;;;3.50;99.90;;;;;;4946877;28;19957;-80
2021/12/18 12:19:19;;;;;;;;;;;3.50;99.90;;;;;;4966989;28;19915;-80
2021/12/18 12:21:50;;;;;;;;;;;3.50;99.90;;;;;;4971823;28;20009;-80
2021/12/18 12:24:17;;;;;;;;;;;3.50;99.90;;;;;;4969290;28;19997;-81
2021/12/18 12:26:42;;;;;;;;;;;3.50;99.90;;;;;;4962446;28;20383;-82
2021/12/18 12:29:13;;;;;;;;;;;3.50;99.90;;;;;;4967787;28;19914;-82
2021/12/18 12:31:53;;;;;;;;;;;3.50;99.90;;;;;;4969333;28;20000;-82
2021/12/18 12:34:22;;;;;;;;;;;3.50;99.90;;;;;;4968001;28;20357;-82
2021/12/18 12:36:49;;;;;;;;;;;3.50;99.90;;;;;;4963728;28;20380;-82
2021/12/18 12:39:15;;;;;;;;;;;3.60;99.90;;;;;;4942119;28;19953;-82
2021/12/18 12:41:47;;;;;;;;;;;3.50;99.90;;;;;;4979751;28;19968;-82
2021/12/18 12:44:24;;;;;;;;;;;3.50;99.90;;;;;;4963154;28;19922;-82
2021/12/18 12:47:09;;;;;;;;;;;3.50;99.90;;;;;;4970244;28;20545;-82
2021/12/18 12:49:35;;;;;;;;;;;3.50;99.90;;;;;;4950887;28;19964;-82
2021/12/18 12:52:05;;;;;;;;;;;3.50;99.90;;;;;;4951432;28;20377;-82
2021/12/18 12:54:45;;;;;;;;;;;3.50;99.90;;;;;;4967616;28;19924;-82
2021/12/18 12:57:23;;;;;;;;;;;3.50;99.90;;;;;;4959220;28;19973;-82
2021/12/18 12:59:51;;;;;;;;;;;3.50;99.90;;;;;;4969653;28;20755;-81
2021/12/18 13:02:17;;;;;;;;;;;3.50;99.90;;;;;;4966158;28;19941;-83
2021/12/18 13:04:43;;;;;;;;;;;3.50;99.90;;;;;;4959893;28;19914;-82
2021/12/18 13:07:09;;;;;;;;;;;3.50;99.90;;;;;;4966684;28;20371;-81
2021/12/18 13:09:35;;;;;;;;;;;3.50;99.90;;;;;;4935509;28;19918;-82
2021/12/18 13:12:01;;;;;;;;;;;3.50;99.90;;;;;;4965194;28;20415;-81
2021/12/18 13:14:34;;;;;;;;;;;3.50;99.90;;;;;;4985337;28;19926;-81
2021/12/18 13:17:00;;;;;;;;;;;3.50;99.90;;;;;;4965538;28;19998;-81
2021/12/18 13:19:26;;;;;;;;;;;3.40;99.90;;;;;;4983187;28;20571;-81
2021/12/18 13:21:51;;;;;;;;;;;3.40;99.90;;;;;;4940973;28;19918;-81
2021/12/18 13:24:17;;;;;;;;;;;3.40;99.90;;;;;;4971765;28;19918;-82
2021/12/18 13:26:44;;;;;;;;;;;3.40;99.90;;;;;;4967946;28;19959;-82
2021/12/18 13:29:09;;;;;;;;;;;3.40;99.90;;;;;;4954228;28;19918;-82
2021/12/18 13:31:39;;;;;;;;;;;3.40;99.90;;;;;;4986156;28;20341;-81
2021/12/18 13:34:06;;;;;;;;;;;3.40;99.90;;;;;;4977270;28;19929;-81
2021/12/18 13:37:04;;;;;;;;;;;3.50;99.90;;;;;;4965923;28;20059;-81
2021/12/18 13:39:50;;;;;;;;;;;3.50;99.90;;;;;;4958512;28;19938;-80
2021/12/18 13:42:19;;;;;;;;;;;3.50;99.90;;;;;;4947758;28;19936;-81
2021/12/18 13:44:44;;;;;;;;;;;3.50;99.90;;;;;;4949352;28;19930;-80
2021/12/18 13:47:21;;;;;;;;;;;3.50;99.90;;;;;;4981452;28;19918;-81
2021/12/18 13:49:47;;;;;;;;;;;3.50;99.90;;;;;;4978720;28;20028;-80
2021/12/18 13:52:12;;;;;;;;;;;3.40;99.90;;;;;;4972460;28;20026;-81
2021/12/18 13:54:41;;;;;;;;;;;3.40;99.90;;;;;;4987068;28;19926;-80
2021/12/18 13:57:07;;;;;;;;;;;3.40;99.90;;;;;;4965117;28;19921;-81
2021/12/18 13:59:32;;;;;;;;;;;3.40;99.90;;;;;;4954269;28;19918;-81
2021/12/18 14:02:03;;;;;;;;;;;3.40;99.90;;;;;;4971361;28;19919;-81
2021/12/18 14:04:29;;;;;;;;;;;3.40;99.90;;;;;;4985841;28;19918;-81
2021/12/18 14:06:55;;;;;;;;;;;3.40;99.90;;;;;;4964564;28;19924;-80
2021/12/18 14:09:26;;;;;;;;;;;3.40;99.90;;;;;;4968621;28;19914;-80
2021/12/18 14:12:02;;;;;;;;;;;3.30;99.90;;;;;;4983520;28;19997;-81
2021/12/18 14:14:48;;;;;;;;;;;3.30;99.90;;;;;;4976582;28;20056;-81
2021/12/18 14:17:26;;;;;;;;;;;3.40;99.90;;;;;;4980033;28;20288;-80
2021/12/18 14:19:53;;;;;;;;;;;3.30;99.90;;;;;;4985354;28;19914;-80
2021/12/18 14:22:26;;;;;;;;;;;3.30;99.90;;;;;;4970047;28;20437;-81
2021/12/18 14:25:19;;;;;;;;;;;3.30;99.90;;;;;;4974537;28;19937;-80
2021/12/18 14:27:45;;;;;;;;;;;3.40;99.90;;;;;;4959195;28;20016;-80
2021/12/18 14:30:13;;;;;;;;;;;3.40;99.90;;;;;;4960153;28;19918;-81
2021/12/18 14:32:39;;;;;;;;;;;3.30;99.90;;;;;;4988121;28;19933;-80
2021/12/18 14:35:06;;;;;;;;;;;3.40;99.90;;;;;;4973422;28;20032;-80
2021/12/18 14:37:31;;;;;;;;;;;3.30;99.90;;;;;;4970279;28;19991;-80
2021/12/18 14:39:57;;;;;;;;;;;3.30;99.90;;;;;;4960834;28;19953;-80
2021/12/18 14:42:30;;;;;;;;;;;3.30;99.90;;;;;;4955966;28;19918;-81
2021/12/18 14:44:58;;;;;;;;;;;3.20;99.90;;;;;;4963389;28;19918;-81
2021/12/18 14:47:26;;;;;;;;;;;3.20;99.90;;;;;;4966729;28;19945;-81
2021/12/18 14:50:21;;;;;;;;;;;3.20;99.90;;;;;;4970545;28;19914;-81
2021/12/18 14:52:49;;;;;;;;;;;3.20;99.90;;;;;;4960192;28;19914;-80
2021/12/18 14:55:18;;;;;;;;;;;3.20;99.90;;;;;;4954845;28;20073;-82
2021/12/18 14:58:01;;;;;;;;;;;3.20;99.90;;;;;;4960781;28;20354;-81
2021/12/18 15:00:28;;;;;;;;;;;3.20;99.90;;;;;;4980340;28;19918;-82
2021/12/18 15:03:11;;;;;;;;;;;3.20;99.90;;;;;;4936740;28;19922;-81
2021/12/18 15:05:47;;;;;;;;;;;3.20;99.90;;;;;;4979435;28;19918;-81
2021/12/18 15:08:18;;;;;;;;;;;3.20;99.90;;;;;;4981692;28;20284;-80
2021/12/18 15:10:52;;;;;;;;;;;3.20;99.90;;;;;;4965902;28;20005;-81
2021/12/18 15:13:21;;;;;;;;;;;3.20;99.90;;;;;;4985609;28;19914;-80
2021/12/18 15:15:47;;;;;;;;;;;3.20;99.90;;;;;;4972597;28;20001;-81
2021/12/18 15:18:13;;;;;;;;;;;3.20;99.90;;;;;;4970975;28;19914;-80
2021/12/18 15:20:38;;;;;;;;;;;3.20;99.90;;;;;;4979624;28;19921;-80